Terminal Aerodrome Forecast
Issued by NWS Sterling, VA

Home | Current Version | Previous Version | Text Only | Print | Product List | Glossary On
Versions: 1 2 3 4 5 6 7 8 9 10 11 12 13 14 15 16 17 18
000
FTUS41 KLWX 170800 AAA
TAFCHO
TAF AMD
KCHO 170834Z 1709/1806 VRB03KT P6SM SKC
     FM171700 08007KT P6SM SCT250
     FM171900 08008KT P6SM SCT050
     FM172100 11009KT P6SM BKN050
     FM180200 07005KT P6SM BKN050=

USA.gov is the U.S. government's official web portal to all federal, state and local government web resources and services.